sensor_id;sensor_type;location;lat;lon;timestamp;temperature;humidity
54540;SHT30;40438;52.992;18.604;2023-02-02T00:00:32;18.89;61.63
54540;SHT30;40438;52.992;18.604;2023-02-02T00:02:58;18.89;61.64
54540;SHT30;40438;52.992;18.604;2023-02-02T00:05:24;18.92;61.67
54540;SHT30;40438;52.992;18.604;2023-02-02T00:07:49;18.87;61.66
54540;SHT30;40438;52.992;18.604;2023-02-02T00:10:16;18.83;61.69
54540;SHT30;40438;52.992;18.604;2023-02-02T00:12:43;18.84;61.42
54540;SHT30;40438;52.992;18.604;2023-02-02T00:15:09;18.87;61.51
54540;SHT30;40438;52.992;18.604;2023-02-02T00:17:35;18.85;61.25
54540;SHT30;40438;52.992;18.604;2023-02-02T00:20:01;18.85;61.33
54540;SHT30;40438;52.992;18.604;2023-02-02T00:22:26;18.87;61.58
54540;SHT30;40438;52.992;18.604;2023-02-02T00:24:52;18.81;61.57
54540;SHT30;40438;52.992;18.604;2023-02-02T00:27:18;18.87;61.51
54540;SHT30;40438;52.992;18.604;2023-02-02T00:29:45;18.88;61.80
54540;SHT30;40438;52.992;18.604;2023-02-02T00:32:11;18.80;61.62
54540;SHT30;40438;52.992;18.604;2023-02-02T00:34:37;18.83;61.65
54540;SHT30;40438;52.992;18.604;2023-02-02T00:37:04;18.87;61.55
54540;SHT30;40438;52.992;18.604;2023-02-02T00:39:30;18.83;61.55
54540;SHT30;40438;52.992;18.604;2023-02-02T00:41:55;18.78;61.68
54540;SHT30;40438;52.992;18.604;2023-02-02T00:44:21;18.81;61.74
54540;SHT30;40438;52.992;18.604;2023-02-02T00:46:48;18.80;61.64
54540;SHT30;40438;52.992;18.604;2023-02-02T00:49:14;18.78;61.64
54540;SHT30;40438;52.992;18.604;2023-02-02T00:51:40;18.78;61.50
54540;SHT30;40438;52.992;18.604;2023-02-02T00:54:06;18.80;61.57
54540;SHT30;40438;52.992;18.604;2023-02-02T00:56:32;18.75;61.73
54540;SHT30;40438;52.992;18.604;2023-02-02T00:58:57;18.74;61.60
54540;SHT30;40438;52.992;18.604;2023-02-02T01:01:23;18.74;61.54
54540;SHT30;40438;52.992;18.604;2023-02-02T01:03:51;18.73;61.63
54540;SHT30;40438;52.992;18.604;2023-02-02T01:06:17;18.70;61.60
54540;SHT30;40438;52.992;18.604;2023-02-02T01:08:43;18.73;61.56
54540;SHT30;40438;52.992;18.604;2023-02-02T01:11:09;18.74;61.63
54540;SHT30;40438;52.992;18.604;2023-02-02T01:13:35;18.70;61.47
54540;SHT30;40438;52.992;18.604;2023-02-02T01:16:02;18.70;61.50
54540;SHT30;40438;52.992;18.604;2023-02-02T01:18:28;18.75;61.55
54540;SHT30;40438;52.992;18.604;2023-02-02T01:20:57;18.71;61.65
54540;SHT30;40438;52.992;18.604;2023-02-02T01:23:23;18.74;61.39
54540;SHT30;40438;52.992;18.604;2023-02-02T01:25:52;18.67;61.53
54540;SHT30;40438;52.992;18.604;2023-02-02T01:28:18;18.67;61.29
54540;SHT30;40438;52.992;18.604;2023-02-02T01:30:44;18.67;61.44
54540;SHT30;40438;52.992;18.604;2023-02-02T01:33:09;18.67;61.19
54540;SHT30;40438;52.992;18.604;2023-02-02T01:35:35;18.65;61.41
54540;SHT30;40438;52.992;18.604;2023-02-02T01:38:02;18.65;61.37
54540;SHT30;40438;52.992;18.604;2023-02-02T01:40:28;18.67;61.71
54540;SHT30;40438;52.992;18.604;2023-02-02T01:42:54;18.65;61.61
54540;SHT30;40438;52.992;18.604;2023-02-02T01:45:24;18.70;61.45
54540;SHT30;40438;52.992;18.604;2023-02-02T01:47:52;18.70;61.44
54540;SHT30;40438;52.992;18.604;2023-02-02T01:50:21;18.68;61.41
54540;SHT30;40438;52.992;18.604;2023-02-02T01:52:48;18.61;61.38
54540;SHT30;40438;52.992;18.604;2023-02-02T01:55:20;18.65;61.26
54540;SHT30;40438;52.992;18.604;2023-02-02T01:57:52;18.65;61.42
54540;SHT30;40438;52.992;18.604;2023-02-02T02:00:19;18.63;61.19
54540;SHT30;40438;52.992;18.604;2023-02-02T02:02:47;18.64;61.29
54540;SHT30;40438;52.992;18.604;2023-02-02T02:05:20;18.65;61.39
54540;SHT30;40438;52.992;18.604;2023-02-02T02:07:50;18.63;61.63
54540;SHT30;40438;52.992;18.604;2023-02-02T02:10:19;18.64;61.55
54540;SHT30;40438;52.992;18.604;2023-02-02T02:12:46;18.59;61.58
54540;SHT30;40438;52.992;18.604;2023-02-02T02:15:12;18.61;61.09
54540;SHT30;40438;52.992;18.604;2023-02-02T02:17:54;18.61;61.28
54540;SHT30;40438;52.992;18.604;2023-02-02T02:20:48;18.56;61.10
54540;SHT30;40438;52.992;18.604;2023-02-02T02:24:03;18.59;61.28
54540;SHT30;40438;52.992;18.604;2023-02-02T02:26:55;18.50;61.04
54540;SHT30;40438;52.992;18.604;2023-02-02T02:30:02;18.54;61.09
54540;SHT30;40438;52.992;18.604;2023-02-02T02:32:39;18.53;60.76
54540;SHT30;40438;52.992;18.604;2023-02-02T02:35:11;18.56;61.05
54540;SHT30;40438;52.992;18.604;2023-02-02T02:37:44;18.53;61.02
54540;SHT30;40438;52.992;18.604;2023-02-02T02:40:17;18.56;61.16
54540;SHT30;40438;52.992;18.604;2023-02-02T02:42:48;18.60;61.30
54540;SHT30;40438;52.992;18.604;2023-02-02T02:45:17;18.57;60.80
54540;SHT30;40438;52.992;18.604;2023-02-02T02:47:46;18.57;61.21
54540;SHT30;40438;52.992;18.604;2023-02-02T02:50:12;18.57;61.21
54540;SHT30;40438;52.992;18.604;2023-02-02T02:52:39;18.54;61.17
54540;SHT30;40438;52.992;18.604;2023-02-02T02:55:06;18.56;61.06
54540;SHT30;40438;52.992;18.604;2023-02-02T02:57:52;18.53;61.52
54540;SHT30;40438;52.992;18.604;2023-02-02T03:00:35;18.53;61.27
54540;SHT30;40438;52.992;18.604;2023-02-02T03:03:08;18.56;61.07
54540;SHT30;40438;52.992;18.604;2023-02-02T03:05:44;18.50;60.75
54540;SHT30;40438;52.992;18.604;2023-02-02T03:08:18;18.49;61.20
54540;SHT30;40438;52.992;18.604;2023-02-02T03:10:46;18.57;61.32
54540;SHT30;40438;52.992;18.604;2023-02-02T03:13:13;18.56;61.23
54540;SHT30;40438;52.992;18.604;2023-02-02T03:15:40;18.54;60.96
54540;SHT30;40438;52.992;18.604;2023-02-02T03:18:07;18.56;61.30
54540;SHT30;40438;52.992;18.604;2023-02-02T03:20:33;18.54;61.41
54540;SHT30;40438;52.992;18.604;2023-02-02T03:22:59;18.56;61.38
54540;SHT30;40438;52.992;18.604;2023-02-02T03:25:25;18.57;61.35
54540;SHT30;40438;52.992;18.604;2023-02-02T03:27:51;18.60;61.19
54540;SHT30;40438;52.992;18.604;2023-02-02T03:30:18;18.60;61.34
54540;SHT30;40438;52.992;18.604;2023-02-02T03:32:44;18.56;61.25
54540;SHT30;40438;52.992;18.604;2023-02-02T03:35:11;18.56;61.32
54540;SHT30;40438;52.992;18.604;2023-02-02T03:37:37;18.56;61.51
54540;SHT30;40438;52.992;18.604;2023-02-02T03:40:04;18.59;61.16
54540;SHT30;40438;52.992;18.604;2023-02-02T03:42:30;18.59;61.30
54540;SHT30;40438;52.992;18.604;2023-02-02T03:44:56;18.56;60.64
54540;SHT30;40438;52.992;18.604;2023-02-02T03:47:22;18.56;61.18
54540;SHT30;40438;52.992;18.604;2023-02-02T03:49:47;18.54;61.20
54540;SHT30;40438;52.992;18.604;2023-02-02T03:52:15;18.54;60.96
54540;SHT30;40438;52.992;18.604;2023-02-02T03:54:40;18.50;60.70
54540;SHT30;40438;52.992;18.604;2023-02-02T03:57:06;18.49;60.83
54540;SHT30;40438;52.992;18.604;2023-02-02T03:59:32;18.49;60.94
54540;SHT30;40438;52.992;18.604;2023-02-02T04:01:58;18.49;60.98
54540;SHT30;40438;52.992;18.604;2023-02-02T04:04:23;18.19;60.95
54540;SHT30;40438;52.992;18.604;2023-02-02T04:06:49;18.81;59.52
54540;SHT30;40438;52.992;18.604;2023-02-02T04:09:16;19.12;58.54
54540;SHT30;40438;52.992;18.604;2023-02-02T04:11:42;19.29;58.19
54540;SHT30;40438;52.992;18.604;2023-02-02T04:14:08;19.36;57.99
54540;SHT30;40438;52.992;18.604;2023-02-02T04:16:34;19.42;57.84
54540;SHT30;40438;52.992;18.604;2023-02-02T04:19:00;19.54;57.44
54540;SHT30;40438;52.992;18.604;2023-02-02T04:21:26;19.57;57.24
54540;SHT30;40438;52.992;18.604;2023-02-02T04:23:51;19.56;57.31
54540;SHT30;40438;52.992;18.604;2023-02-02T04:26:19;19.57;57.08
54540;SHT30;40438;52.992;18.604;2023-02-02T04:28:44;19.57;57.18
54540;SHT30;40438;52.992;18.604;2023-02-02T04:31:10;19.53;57.28
54540;SHT30;40438;52.992;18.604;2023-02-02T04:33:36;19.66;56.87
54540;SHT30;40438;52.992;18.604;2023-02-02T04:36:02;19.66;56.80
54540;SHT30;40438;52.992;18.604;2023-02-02T04:38:28;19.66;56.71
54540;SHT30;40438;52.992;18.604;2023-02-02T04:40:54;19.66;56.73
54540;SHT30;40438;52.992;18.604;2023-02-02T04:43:21;19.67;56.64
54540;SHT30;40438;52.992;18.604;2023-02-02T04:45:47;19.69;56.68
54540;SHT30;40438;52.992;18.604;2023-02-02T04:48:13;19.69;56.66
54540;SHT30;40438;52.992;18.604;2023-02-02T04:50:38;19.71;56.44
54540;SHT30;40438;52.992;18.604;2023-02-02T04:53:04;19.70;56.57
54540;SHT30;40438;52.992;18.604;2023-02-02T04:55:30;19.73;56.57
54540;SHT30;40438;52.992;18.604;2023-02-02T04:58:00;19.70;56.64
54540;SHT30;40438;52.992;18.604;2023-02-02T05:00:27;19.73;56.53
54540;SHT30;40438;52.992;18.604;2023-02-02T05:02:53;19.74;56.66
54540;SHT30;40438;52.992;18.604;2023-02-02T05:05:19;19.73;56.17
54540;SHT30;40438;52.992;18.604;2023-02-02T05:07:44;19.80;56.40
54540;SHT30;40438;52.992;18.604;2023-02-02T05:10:11;19.78;56.64
54540;SHT30;40438;52.992;18.604;2023-02-02T05:12:37;19.75;56.48
54540;SHT30;40438;52.992;18.604;2023-02-02T05:15:03;19.78;56.42
54540;SHT30;40438;52.992;18.604;2023-02-02T05:17:31;19.78;56.52
54540;SHT30;40438;52.992;18.604;2023-02-02T05:19:57;19.78;56.39
54540;SHT30;40438;52.992;18.604;2023-02-02T05:22:23;19.71;56.34
54540;SHT30;40438;52.992;18.604;2023-02-02T05:24:49;19.81;56.26
54540;SHT30;40438;52.992;18.604;2023-02-02T05:27:14;19.80;56.33
54540;SHT30;40438;52.992;18.604;2023-02-02T05:29:40;19.85;56.01
54540;SHT30;40438;52.992;18.604;2023-02-02T05:32:06;19.84;55.95
54540;SHT30;40438;52.992;18.604;2023-02-02T05:34:33;19.78;55.91
54540;SHT30;40438;52.992;18.604;2023-02-02T05:36:59;19.84;55.84
54540;SHT30;40438;52.992;18.604;2023-02-02T05:39:24;19.91;55.79
54540;SHT30;40438;52.992;18.604;2023-02-02T05:41:50;19.87;55.67
54540;SHT30;40438;52.992;18.604;2023-02-02T05:44:16;19.85;55.67
54540;SHT30;40438;52.992;18.604;2023-02-02T05:46:42;19.88;55.78
54540;SHT30;40438;52.992;18.604;2023-02-02T05:49:11;19.93;55.50
54540;SHT30;40438;52.992;18.604;2023-02-02T05:51:40;19.94;55.63
54540;SHT30;40438;52.992;18.604;2023-02-02T05:54:07;19.97;55.54
54540;SHT30;40438;52.992;18.604;2023-02-02T05:56:33;20.00;55.63
54540;SHT30;40438;52.992;18.604;2023-02-02T05:58:59;20.05;55.75
54540;SHT30;40438;52.992;18.604;2023-02-02T06:01:24;19.98;56.06
54540;SHT30;40438;52.992;18.604;2023-02-02T06:03:50;19.96;56.60
54540;SHT30;40438;52.992;18.604;2023-02-02T06:06:16;19.91;56.66
54540;SHT30;40438;52.992;18.604;2023-02-02T06:08:43;19.97;56.53
54540;SHT30;40438;52.992;18.604;2023-02-02T06:11:10;20.01;56.52
54540;SHT30;40438;52.992;18.604;2023-02-02T06:13:35;20.03;56.36
54540;SHT30;40438;52.992;18.604;2023-02-02T06:16:01;20.03;56.25
54540;SHT30;40438;52.992;18.604;2023-02-02T06:18:27;20.00;56.25
54540;SHT30;40438;52.992;18.604;2023-02-02T06:20:56;20.01;56.44
54540;SHT30;40438;52.992;18.604;2023-02-02T06:23:21;20.00;56.43
54540;SHT30;40438;52.992;18.604;2023-02-02T06:25:49;20.04;56.32
54540;SHT30;40438;52.992;18.604;2023-02-02T06:28:15;20.05;56.27
54540;SHT30;40438;52.992;18.604;2023-02-02T06:30:40;20.05;56.55
54540;SHT30;40438;52.992;18.604;2023-02-02T06:33:06;20.00;56.50
54540;SHT30;40438;52.992;18.604;2023-02-02T06:35:32;20.03;56.12
54540;SHT30;40438;52.992;18.604;2023-02-02T06:37:58;20.07;56.36
54540;SHT30;40438;52.992;18.604;2023-02-02T06:40:24;20.08;56.12
54540;SHT30;40438;52.992;18.604;2023-02-02T06:42:55;20.10;56.29
54540;SHT30;40438;52.992;18.604;2023-02-02T06:45:21;20.04;56.08
54540;SHT30;40438;52.992;18.604;2023-02-02T06:47:47;20.11;55.94
54540;SHT30;40438;52.992;18.604;2023-02-02T06:50:13;20.17;55.72
54540;SHT30;40438;52.992;18.604;2023-02-02T06:52:39;20.15;55.77
54540;SHT30;40438;52.992;18.604;2023-02-02T06:55:05;20.07;56.01
54540;SHT30;40438;52.992;18.604;2023-02-02T06:57:31;20.05;56.13
54540;SHT30;40438;52.992;18.604;2023-02-02T06:59:58;20.10;56.10
54540;SHT30;40438;52.992;18.604;2023-02-02T07:02:24;20.11;55.98
54540;SHT30;40438;52.992;18.604;2023-02-02T07:04:50;20.07;56.10
54540;SHT30;40438;52.992;18.604;2023-02-02T07:07:16;20.10;55.92
54540;SHT30;40438;52.992;18.604;2023-02-02T07:09:42;20.08;56.10
54540;SHT30;40438;52.992;18.604;2023-02-02T07:12:07;20.08;55.87
54540;SHT30;40438;52.992;18.604;2023-02-02T07:14:33;20.11;55.73
54540;SHT30;40438;52.992;18.604;2023-02-02T07:17:00;20.05;55.97
54540;SHT30;40438;52.992;18.604;2023-02-02T07:19:26;20.12;55.67
54540;SHT30;40438;52.992;18.604;2023-02-02T07:21:52;20.11;55.61
54540;SHT30;40438;52.992;18.604;2023-02-02T07:24:18;20.14;55.56
54540;SHT30;40438;52.992;18.604;2023-02-02T07:26:43;20.15;55.46
54540;SHT30;40438;52.992;18.604;2023-02-02T07:29:11;20.11;55.60
54540;SHT30;40438;52.992;18.604;2023-02-02T07:31:37;20.12;55.58
54540;SHT30;40438;52.992;18.604;2023-02-02T07:34:04;20.14;55.34
54540;SHT30;40438;52.992;18.604;2023-02-02T07:36:30;20.20;55.37
54540;SHT30;40438;52.992;18.604;2023-02-02T07:38:56;20.26;55.16
54540;SHT30;40438;52.992;18.604;2023-02-02T07:41:22;20.24;55.06
54540;SHT30;40438;52.992;18.604;2023-02-02T07:43:49;20.25;55.40
54540;SHT30;40438;52.992;18.604;2023-02-02T07:46:15;20.18;55.06
54540;SHT30;40438;52.992;18.604;2023-02-02T07:48:41;20.26;55.38
54540;SHT30;40438;52.992;18.604;2023-02-02T07:51:10;20.26;55.28
54540;SHT30;40438;52.992;18.604;2023-02-02T07:53:36;20.28;55.13
54540;SHT30;40438;52.992;18.604;2023-02-02T07:56:10;20.25;55.52
54540;SHT30;40438;52.992;18.604;2023-02-02T07:58:36;20.26;55.10
54540;SHT30;40438;52.992;18.604;2023-02-02T08:01:02;20.33;54.84
54540;SHT30;40438;52.992;18.604;2023-02-02T08:03:28;20.29;55.02
54540;SHT30;40438;52.992;18.604;2023-02-02T08:05:54;20.26;55.03
54540;SHT30;40438;52.992;18.604;2023-02-02T08:08:21;20.26;54.84
54540;SHT30;40438;52.992;18.604;2023-02-02T08:10:47;20.32;55.09
54540;SHT30;40438;52.992;18.604;2023-02-02T08:13:13;20.28;55.02
54540;SHT30;40438;52.992;18.604;2023-02-02T08:15:39;20.26;55.09
54540;SHT30;40438;52.992;18.604;2023-02-02T08:18:04;20.32;55.16
54540;SHT30;40438;52.992;18.604;2023-02-02T08:20:30;20.31;55.07
54540;SHT30;40438;52.992;18.604;2023-02-02T08:22:56;20.28;55.17
54540;SHT30;40438;52.992;18.604;2023-02-02T08:25:23;20.29;55.16
54540;SHT30;40438;52.992;18.604;2023-02-02T08:27:52;20.35;55.12
54540;SHT30;40438;52.992;18.604;2023-02-02T08:30:18;20.29;55.29
54540;SHT30;40438;52.992;18.604;2023-02-02T08:32:44;20.26;55.39
54540;SHT30;40438;52.992;18.604;2023-02-02T08:35:09;20.32;55.39
54540;SHT30;40438;52.992;18.604;2023-02-02T08:37:35;20.35;55.27
54540;SHT30;40438;52.992;18.604;2023-02-02T08:40:01;20.38;55.02
54540;SHT30;40438;52.992;18.604;2023-02-02T08:42:28;20.39;55.31
54540;SHT30;40438;52.992;18.604;2023-02-02T08:44:54;20.38;55.22
54540;SHT30;40438;52.992;18.604;2023-02-02T08:47:19;20.45;55.24
54540;SHT30;40438;52.992;18.604;2023-02-02T08:49:45;20.41;55.40
54540;SHT30;40438;52.992;18.604;2023-02-02T08:52:11;20.45;55.75
54540;SHT30;40438;52.992;18.604;2023-02-02T08:54:36;20.52;55.46
54540;SHT30;40438;52.992;18.604;2023-02-02T08:57:02;20.48;55.92
54540;SHT30;40438;52.992;18.604;2023-02-02T08:59:29;20.73;55.56
54540;SHT30;40438;52.992;18.604;2023-02-02T09:01:55;20.83;55.10
54540;SHT30;40438;52.992;18.604;2023-02-02T09:04:21;20.83;55.21
54540;SHT30;40438;52.992;18.604;2023-02-02T09:06:47;20.77;54.77
54540;SHT30;40438;52.992;18.604;2023-02-02T09:09:14;20.72;55.12
54540;SHT30;40438;52.992;18.604;2023-02-02T09:11:41;20.77;55.04
54540;SHT30;40438;52.992;18.604;2023-02-02T09:14:07;20.69;55.18
54540;SHT30;40438;52.992;18.604;2023-02-02T09:16:35;20.76;55.35
54540;SHT30;40438;52.992;18.604;2023-02-02T09:19:01;20.69;55.16
54540;SHT30;40438;52.992;18.604;2023-02-02T09:21:26;20.84;55.45
54540;SHT30;40438;52.992;18.604;2023-02-02T09:23:53;20.84;54.83
54540;SHT30;40438;52.992;18.604;2023-02-02T09:26:20;20.70;54.58
54540;SHT30;40438;52.992;18.604;2023-02-02T09:28:48;20.79;54.48
54540;SHT30;40438;52.992;18.604;2023-02-02T09:31:15;20.66;54.46
54540;SHT30;40438;52.992;18.604;2023-02-02T09:33:42;20.62;54.64
54540;SHT30;40438;52.992;18.604;2023-02-02T09:36:09;20.70;54.74
54540;SHT30;40438;52.992;18.604;2023-02-02T09:38:36;20.89;54.09
54540;SHT30;40438;52.992;18.604;2023-02-02T09:41:13;20.90;54.49
54540;SHT30;40438;52.992;18.604;2023-02-02T09:43:49;20.89;53.54
54540;SHT30;40438;52.992;18.604;2023-02-02T09:46:24;20.82;53.73
54540;SHT30;40438;52.992;18.604;2023-02-02T09:48:59;21.08;53.66
54540;SHT30;40438;52.992;18.604;2023-02-02T09:51:29;21.10;53.54
54540;SHT30;40438;52.992;18.604;2023-02-02T09:54:00;20.96;53.54
54540;SHT30;40438;52.992;18.604;2023-02-02T09:56:33;21.03;53.25
54540;SHT30;40438;52.992;18.604;2023-02-02T09:59:05;20.93;53.19
54540;SHT30;40438;52.992;18.604;2023-02-02T10:01:34;20.89;53.26
54540;SHT30;40438;52.992;18.604;2023-02-02T10:04:05;20.77;53.17
54540;SHT30;40438;52.992;18.604;2023-02-02T10:06:37;20.69;53.00
54540;SHT30;40438;52.992;18.604;2023-02-02T10:09:19;20.69;53.31
54540;SHT30;40438;52.992;18.604;2023-02-02T10:11:54;20.66;53.31
54540;SHT30;40438;52.992;18.604;2023-02-02T10:14:24;20.62;53.00
54540;SHT30;40438;52.992;18.604;2023-02-02T10:16:53;20.60;53.15
54540;SHT30;40438;52.992;18.604;2023-02-02T10:19:22;20.62;53.11
54540;SHT30;40438;52.992;18.604;2023-02-02T10:21:54;20.69;53.04
54540;SHT30;40438;52.992;18.604;2023-02-02T10:24:27;20.64;52.94
54540;SHT30;40438;52.992;18.604;2023-02-02T10:26:54;20.63;52.98
54540;SHT30;40438;52.992;18.604;2023-02-02T10:29:31;20.68;52.65
54540;SHT30;40438;52.992;18.604;2023-02-02T10:32:04;20.77;52.85
54540;SHT30;40438;52.992;18.604;2023-02-02T10:34:40;20.63;52.49
54540;SHT30;40438;52.992;18.604;2023-02-02T10:37:16;20.57;52.10
54540;SHT30;40438;52.992;18.604;2023-02-02T10:39:51;20.63;51.65
54540;SHT30;40438;52.992;18.604;2023-02-02T10:42:29;20.64;52.11
54540;SHT30;40438;52.992;18.604;2023-02-02T10:44:59;20.73;51.49
54540;SHT30;40438;52.992;18.604;2023-02-02T10:47:28;20.75;51.49
54540;SHT30;40438;52.992;18.604;2023-02-02T10:50:06;20.96;51.89
54540;SHT30;40438;52.992;18.604;2023-02-02T10:52:37;20.84;50.89
54540;SHT30;40438;52.992;18.604;2023-02-02T10:55:06;20.75;51.29
54540;SHT30;40438;52.992;18.604;2023-02-02T10:57:47;20.86;51.74
54540;SHT30;40438;52.992;18.604;2023-02-02T11:00:20;20.79;51.61
54540;SHT30;40438;52.992;18.604;2023-02-02T11:02:46;20.82;51.82
54540;SHT30;40438;52.992;18.604;2023-02-02T11:05:18;20.76;52.10
54540;SHT30;40438;52.992;18.604;2023-02-02T11:07:45;20.72;52.04
54540;SHT30;40438;52.992;18.604;2023-02-02T11:10:10;20.64;52.25
54540;SHT30;40438;52.992;18.604;2023-02-02T11:12:41;20.70;51.87
54540;SHT30;40438;52.992;18.604;2023-02-02T11:15:21;20.68;51.61
54540;SHT30;40438;52.992;18.604;2023-02-02T11:17:47;20.64;51.88
54540;SHT30;40438;52.992;18.604;2023-02-02T11:20:23;20.66;51.91
54540;SHT30;40438;52.992;18.604;2023-02-02T11:22:58;20.60;52.03
54540;SHT30;40438;52.992;18.604;2023-02-02T11:25:26;20.69;52.01
54540;SHT30;40438;52.992;18.604;2023-02-02T11:27:54;20.57;52.38
54540;SHT30;40438;52.992;18.604;2023-02-02T11:30:23;20.48;52.49
54540;SHT30;40438;52.992;18.604;2023-02-02T11:32:51;20.48;52.40
54540;SHT30;40438;52.992;18.604;2023-02-02T11:35:20;20.43;52.35
54540;SHT30;40438;52.992;18.604;2023-02-02T11:37:59;20.45;52.21
54540;SHT30;40438;52.992;18.604;2023-02-02T11:40:35;20.41;52.39
54540;SHT30;40438;52.992;18.604;2023-02-02T11:43:04;20.46;52.23
54540;SHT30;40438;52.992;18.604;2023-02-02T11:45:33;20.64;51.78
54540;SHT30;40438;52.992;18.604;2023-02-02T11:48:02;20.80;51.57
54540;SHT30;40438;52.992;18.604;2023-02-02T11:50:28;21.32;50.41
54540;SHT30;40438;52.992;18.604;2023-02-02T11:52:56;21.41;49.89
54540;SHT30;40438;52.992;18.604;2023-02-02T11:55:26;21.42;49.70
54540;SHT30;40438;52.992;18.604;2023-02-02T11:58:17;21.79;48.75
54540;SHT30;40438;52.992;18.604;2023-02-02T12:00:46;22.27;47.33
54540;SHT30;40438;52.992;18.604;2023-02-02T12:03:22;21.51;48.98
54540;SHT30;40438;52.992;18.604;2023-02-02T12:05:49;21.15;49.00
54540;SHT30;40438;52.992;18.604;2023-02-02T12:08:16;21.04;49.40
54540;SHT30;40438;52.992;18.604;2023-02-02T12:10:47;20.97;50.09
54540;SHT30;40438;52.992;18.604;2023-02-02T12:13:28;20.77;50.67
54540;SHT30;40438;52.992;18.604;2023-02-02T12:16:04;20.68;50.86
54540;SHT30;40438;52.992;18.604;2023-02-02T12:18:40;20.60;51.19
54540;SHT30;40438;52.992;18.604;2023-02-02T12:21:13;20.51;51.22
54540;SHT30;40438;52.992;18.604;2023-02-02T12:23:57;20.39;51.44
54540;SHT30;40438;52.992;18.604;2023-02-02T12:26:28;20.35;51.95
54540;SHT30;40438;52.992;18.604;2023-02-02T12:29:19;20.24;52.09
54540;SHT30;40438;52.992;18.604;2023-02-02T12:32:10;20.12;52.47
54540;SHT30;40438;52.992;18.604;2023-02-02T12:34:45;20.11;52.47
54540;SHT30;40438;52.992;18.604;2023-02-02T12:37:23;20.03;52.58
54540;SHT30;40438;52.992;18.604;2023-02-02T12:40:02;19.90;52.87
54540;SHT30;40438;52.992;18.604;2023-02-02T12:42:40;19.81;52.85
54540;SHT30;40438;52.992;18.604;2023-02-02T12:45:31;19.73;52.53
54540;SHT30;40438;52.992;18.604;2023-02-02T12:48:13;19.66;52.83
54540;SHT30;40438;52.992;18.604;2023-02-02T12:50:48;19.77;52.73
54540;SHT30;40438;52.992;18.604;2023-02-02T12:53:27;19.81;53.00
54540;SHT30;40438;52.992;18.604;2023-02-02T12:56:06;19.81;52.97
54540;SHT30;40438;52.992;18.604;2023-02-02T12:58:38;19.78;52.97
54540;SHT30;40438;52.992;18.604;2023-02-02T13:01:20;19.81;52.95
54540;SHT30;40438;52.992;18.604;2023-02-02T13:04:06;19.81;52.99
54540;SHT30;40438;52.992;18.604;2023-02-02T13:06:47;19.83;52.81
54540;SHT30;40438;52.992;18.604;2023-02-02T13:09:17;19.83;52.60
54540;SHT30;40438;52.992;18.604;2023-02-02T13:11:49;19.85;52.90
54540;SHT30;40438;52.992;18.604;2023-02-02T13:14:22;19.85;52.78
54540;SHT30;40438;52.992;18.604;2023-02-02T13:16:55;20.08;51.72
54540;SHT30;40438;52.992;18.604;2023-02-02T13:19:25;20.91;48.35
54540;SHT30;40438;52.992;18.604;2023-02-02T13:21:55;21.26;48.41
54540;SHT30;40438;52.992;18.604;2023-02-02T13:24:26;21.48;47.36
54540;SHT30;40438;52.992;18.604;2023-02-02T13:26:56;21.69;47.66
54540;SHT30;40438;52.992;18.604;2023-02-02T13:29:29;21.72;47.21
54540;SHT30;40438;52.992;18.604;2023-02-02T13:31:59;21.85;46.90
54540;SHT30;40438;52.992;18.604;2023-02-02T13:34:36;21.22;47.86
54540;SHT30;40438;52.992;18.604;2023-02-02T13:37:10;20.93;48.38
54540;SHT30;40438;52.992;18.604;2023-02-02T13:39:42;20.91;48.46
54540;SHT30;40438;52.992;18.604;2023-02-02T13:42:24;20.77;48.32
54540;SHT30;40438;52.992;18.604;2023-02-02T13:44:54;20.72;48.25
54540;SHT30;40438;52.992;18.604;2023-02-02T13:47:26;20.69;48.45
54540;SHT30;40438;52.992;18.604;2023-02-02T13:50:00;20.62;48.78
54540;SHT30;40438;52.992;18.604;2023-02-02T13:52:44;20.51;48.36
54540;SHT30;40438;52.992;18.604;2023-02-02T14:01:03;20.20;49.36
54540;SHT30;40438;52.992;18.604;2023-02-02T14:03:33;20.12;49.89
54540;SHT30;40438;52.992;18.604;2023-02-02T14:06:08;19.96;49.54
54540;SHT30;40438;52.992;18.604;2023-02-02T14:08:35;19.90;50.00
54540;SHT30;40438;52.992;18.604;2023-02-02T14:11:03;19.94;50.52
54540;SHT30;40438;52.992;18.604;2023-02-02T14:13:36;19.98;50.63
54540;SHT30;40438;52.992;18.604;2023-02-02T14:16:10;20.01;50.72
54540;SHT30;40438;52.992;18.604;2023-02-02T14:18:52;20.17;50.53
54540;SHT30;40438;52.992;18.604;2023-02-02T14:24:38;20.29;50.51
54540;SHT30;40438;52.992;18.604;2023-02-02T14:27:39;20.25;50.32
54540;SHT30;40438;52.992;18.604;2023-02-02T14:30:20;20.17;50.85
54540;SHT30;40438;52.992;18.604;2023-02-02T14:32:46;20.21;51.22
54540;SHT30;40438;52.992;18.604;2023-02-02T14:38:20;20.41;51.75
54540;SHT30;40438;52.992;18.604;2023-02-02T14:40:52;20.52;51.47
54540;SHT30;40438;52.992;18.604;2023-02-02T14:43:23;20.56;51.49
54540;SHT30;40438;52.992;18.604;2023-02-02T14:46:21;20.55;51.64
54540;SHT30;40438;52.992;18.604;2023-02-02T14:49:05;20.52;51.60
54540;SHT30;40438;52.992;18.604;2023-02-02T14:51:42;20.51;51.66
54540;SHT30;40438;52.992;18.604;2023-02-02T14:54:18;20.49;51.94
54540;SHT30;40438;52.992;18.604;2023-02-02T14:56:48;20.53;51.08
54540;SHT30;40438;52.992;18.604;2023-02-02T14:59:17;20.52;51.27
54540;SHT30;40438;52.992;18.604;2023-02-02T15:01:53;20.53;51.08
54540;SHT30;40438;52.992;18.604;2023-02-02T15:04:25;20.49;51.67
54540;SHT30;40438;52.992;18.604;2023-02-02T15:06:51;20.48;51.40
54540;SHT30;40438;52.992;18.604;2023-02-02T15:09:34;20.56;51.18
54540;SHT30;40438;52.992;18.604;2023-02-02T15:12:21;20.56;51.62
54540;SHT30;40438;52.992;18.604;2023-02-02T15:14:55;20.56;51.42
54540;SHT30;40438;52.992;18.604;2023-02-02T15:17:31;20.57;51.01
54540;SHT30;40438;52.992;18.604;2023-02-02T15:20:05;20.56;51.55
54540;SHT30;40438;52.992;18.604;2023-02-02T15:22:36;20.55;51.51
54540;SHT30;40438;52.992;18.604;2023-02-02T15:25:17;20.57;51.06
54540;SHT30;40438;52.992;18.604;2023-02-02T15:27:56;20.63;50.84
54540;SHT30;40438;52.992;18.604;2023-02-02T15:30:23;20.60;50.89
54540;SHT30;40438;52.992;18.604;2023-02-02T15:32:52;20.66;51.04
54540;SHT30;40438;52.992;18.604;2023-02-02T15:35:22;20.64;51.44
54540;SHT30;40438;52.992;18.604;2023-02-02T15:37:53;20.70;51.36
54540;SHT30;40438;52.992;18.604;2023-02-02T15:40:23;20.69;50.79
54540;SHT30;40438;52.992;18.604;2023-02-02T15:42:53;20.66;51.01